sensor_id;sensor_type;location;lat;lon;timestamp;temperature;humidity
24412;DHT22;12544;46.760;15.942;2022-08-19T00:00:31;21.00;99.90
24412;DHT22;12544;46.760;15.942;2022-08-19T00:02:57;21.00;99.90
24412;DHT22;12544;46.760;15.942;2022-08-19T00:05:22;21.00;99.90
24412;DHT22;12544;46.760;15.942;2022-08-19T00:07:48;21.00;99.90
24412;DHT22;12544;46.760;15.942;2022-08-19T00:10:14;20.90;99.90
24412;DHT22;12544;46.760;15.942;2022-08-19T00:12:40;20.80;99.90
24412;DHT22;12544;46.760;15.942;2022-08-19T00:15:07;20.80;99.90
24412;DHT22;12544;46.760;15.942;2022-08-19T00:17:37;20.80;99.90
24412;DHT22;12544;46.760;15.942;2022-08-19T00:20:03;20.70;99.90
24412;DHT22;12544;46.760;15.942;2022-08-19T00:22:28;20.80;99.90
24412;DHT22;12544;46.760;15.942;2022-08-19T00:24:54;20.60;99.90
24412;DHT22;12544;46.760;15.942;2022-08-19T00:27:19;20.60;99.90
24412;DHT22;12544;46.760;15.942;2022-08-19T00:29:45;20.60;99.90
24412;DHT22;12544;46.760;15.942;2022-08-19T00:32:10;20.70;99.90
24412;DHT22;12544;46.760;15.942;2022-08-19T00:34:37;20.70;99.90
24412;DHT22;12544;46.760;15.942;2022-08-19T00:37:02;20.70;99.90
24412;DHT22;12544;46.760;15.942;2022-08-19T00:39:28;20.60;99.90
24412;DHT22;12544;46.760;15.942;2022-08-19T00:41:54;20.60;99.90
24412;DHT22;12544;46.760;15.942;2022-08-19T00:44:21;20.60;99.90
24412;DHT22;12544;46.760;15.942;2022-08-19T00:46:48;20.60;99.90
24412;DHT22;12544;46.760;15.942;2022-08-19T00:51:40;20.50;99.90
24412;DHT22;12544;46.760;15.942;2022-08-19T00:54:06;20.40;99.90
24412;DHT22;12544;46.760;15.942;2022-08-19T00:56:31;20.40;99.90
24412;DHT22;12544;46.760;15.942;2022-08-19T00:58:58;20.40;99.90
24412;DHT22;12544;46.760;15.942;2022-08-19T01:01:23;20.40;99.90
24412;DHT22;12544;46.760;15.942;2022-08-19T01:03:49;20.40;99.90
24412;DHT22;12544;46.760;15.942;2022-08-19T01:06:15;20.40;99.90
24412;DHT22;12544;46.760;15.942;2022-08-19T01:08:48;20.50;99.90
24412;DHT22;12544;46.760;15.942;2022-08-19T01:11:14;20.40;99.90
24412;DHT22;12544;46.760;15.942;2022-08-19T01:13:39;20.40;99.90
24412;DHT22;12544;46.760;15.942;2022-08-19T01:16:07;20.40;99.90
24412;DHT22;12544;46.760;15.942;2022-08-19T01:18:35;20.40;99.90
24412;DHT22;12544;46.760;15.942;2022-08-19T01:21:02;20.30;99.90
24412;DHT22;12544;46.760;15.942;2022-08-19T01:23:30;20.10;99.90
24412;DHT22;12544;46.760;15.942;2022-08-19T01:26:21;20.10;99.90
24412;DHT22;12544;46.760;15.942;2022-08-19T01:28:48;20.10;99.90
24412;DHT22;12544;46.760;15.942;2022-08-19T01:31:15;20.00;99.90
24412;DHT22;12544;46.760;15.942;2022-08-19T01:33:41;20.00;99.90
24412;DHT22;12544;46.760;15.942;2022-08-19T01:36:09;20.00;99.90
24412;DHT22;12544;46.760;15.942;2022-08-19T01:38:37;20.00;99.90
24412;DHT22;12544;46.760;15.942;2022-08-19T01:41:02;20.10;99.90
24412;DHT22;12544;46.760;15.942;2022-08-19T01:43:28;20.00;99.90
24412;DHT22;12544;46.760;15.942;2022-08-19T01:45:54;20.10;99.90
24412;DHT22;12544;46.760;15.942;2022-08-19T01:48:19;20.00;99.90
24412;DHT22;12544;46.760;15.942;2022-08-19T01:50:50;20.00;99.90
24412;DHT22;12544;46.760;15.942;2022-08-19T01:53:15;19.90;99.90
24412;DHT22;12544;46.760;15.942;2022-08-19T01:58:45;19.80;99.90
24412;DHT22;12544;46.760;15.942;2022-08-19T02:01:12;19.80;99.90
24412;DHT22;12544;46.760;15.942;2022-08-19T02:03:39;19.90;99.90
24412;DHT22;12544;46.760;15.942;2022-08-19T02:08:50;19.90;99.90
24412;DHT22;12544;46.760;15.942;2022-08-19T02:11:20;19.80;99.90
24412;DHT22;12544;46.760;15.942;2022-08-19T02:13:46;19.80;99.90
24412;DHT22;12544;46.760;15.942;2022-08-19T02:16:12;19.80;99.90
24412;DHT22;12544;46.760;15.942;2022-08-19T02:18:37;19.80;99.90
24412;DHT22;12544;46.760;15.942;2022-08-19T02:21:03;19.90;99.90
24412;DHT22;12544;46.760;15.942;2022-08-19T02:23:28;19.80;99.90
24412;DHT22;12544;46.760;15.942;2022-08-19T02:28:36;19.80;99.90
24412;DHT22;12544;46.760;15.942;2022-08-19T02:31:01;19.80;99.90
24412;DHT22;12544;46.760;15.942;2022-08-19T02:33:27;19.70;99.90
24412;DHT22;12544;46.760;15.942;2022-08-19T02:35:53;19.60;99.90
24412;DHT22;12544;46.760;15.942;2022-08-19T02:41:06;19.40;99.90
24412;DHT22;12544;46.760;15.942;2022-08-19T02:43:32;19.50;99.90
24412;DHT22;12544;46.760;15.942;2022-08-19T02:46:01;19.40;99.90
24412;DHT22;12544;46.760;15.942;2022-08-19T02:48:26;19.40;99.90
24412;DHT22;12544;46.760;15.942;2022-08-19T02:53:37;19.30;99.90
24412;DHT22;12544;46.760;15.942;2022-08-19T02:56:05;19.30;99.90
24412;DHT22;12544;46.760;15.942;2022-08-19T02:58:31;19.30;99.90
24412;DHT22;12544;46.760;15.942;2022-08-19T03:00:57;19.40;99.90
24412;DHT22;12544;46.760;15.942;2022-08-19T03:03:22;19.40;99.90
24412;DHT22;12544;46.760;15.942;2022-08-19T03:05:48;19.40;99.90
24412;DHT22;12544;46.760;15.942;2022-08-19T03:08:14;19.50;99.90
24412;DHT22;12544;46.760;15.942;2022-08-19T03:10:43;19.50;99.90
24412;DHT22;12544;46.760;15.942;2022-08-19T03:13:13;19.50;99.90
24412;DHT22;12544;46.760;15.942;2022-08-19T03:15:44;19.60;99.90
24412;DHT22;12544;46.760;15.942;2022-08-19T03:18:09;19.50;99.90
24412;DHT22;12544;46.760;15.942;2022-08-19T03:20:39;19.50;99.90
24412;DHT22;12544;46.760;15.942;2022-08-19T03:23:05;19.50;99.90
24412;DHT22;12544;46.760;15.942;2022-08-19T03:25:30;19.50;99.90
24412;DHT22;12544;46.760;15.942;2022-08-19T03:28:01;19.50;99.90
24412;DHT22;12544;46.760;15.942;2022-08-19T03:30:26;19.50;99.90
24412;DHT22;12544;46.760;15.942;2022-08-19T03:32:55;19.40;99.90
24412;DHT22;12544;46.760;15.942;2022-08-19T03:35:20;19.50;99.90
24412;DHT22;12544;46.760;15.942;2022-08-19T03:37:46;19.50;99.90
24412;DHT22;12544;46.760;15.942;2022-08-19T03:40:11;19.50;99.90
24412;DHT22;12544;46.760;15.942;2022-08-19T03:42:37;19.50;99.90
24412;DHT22;12544;46.760;15.942;2022-08-19T03:47:52;19.50;99.90
24412;DHT22;12544;46.760;15.942;2022-08-19T03:50:18;19.50;99.90
24412;DHT22;12544;46.760;15.942;2022-08-19T03:52:47;19.30;99.90
24412;DHT22;12544;46.760;15.942;2022-08-19T03:55:13;19.30;99.90
24412;DHT22;12544;46.760;15.942;2022-08-19T03:57:38;19.20;99.90
24412;DHT22;12544;46.760;15.942;2022-08-19T04:00:04;19.10;99.90
24412;DHT22;12544;46.760;15.942;2022-08-19T04:02:31;19.10;99.90
24412;DHT22;12544;46.760;15.942;2022-08-19T04:04:57;19.10;99.90
24412;DHT22;12544;46.760;15.942;2022-08-19T04:07:41;19.00;99.90
24412;DHT22;12544;46.760;15.942;2022-08-19T04:10:06;18.90;99.90
24412;DHT22;12544;46.760;15.942;2022-08-19T04:12:32;19.00;99.90
24412;DHT22;12544;46.760;15.942;2022-08-19T04:14:57;18.90;99.90
24412;DHT22;12544;46.760;15.942;2022-08-19T04:17:28;19.00;99.90
24412;DHT22;12544;46.760;15.942;2022-08-19T04:19:54;18.90;99.90
24412;DHT22;12544;46.760;15.942;2022-08-19T04:22:19;18.90;99.90
24412;DHT22;12544;46.760;15.942;2022-08-19T04:24:45;18.90;99.90
24412;DHT22;12544;46.760;15.942;2022-08-19T04:27:10;18.80;99.90
24412;DHT22;12544;46.760;15.942;2022-08-19T04:29:36;18.90;99.90
24412;DHT22;12544;46.760;15.942;2022-08-19T04:32:04;19.00;99.90
24412;DHT22;12544;46.760;15.942;2022-08-19T04:34:30;19.10;99.90
24412;DHT22;12544;46.760;15.942;2022-08-19T04:36:56;19.20;99.90
24412;DHT22;12544;46.760;15.942;2022-08-19T04:39:25;19.30;99.90
24412;DHT22;12544;46.760;15.942;2022-08-19T04:42:13;19.40;99.90
24412;DHT22;12544;46.760;15.942;2022-08-19T04:44:58;19.50;99.90
24412;DHT22;12544;46.760;15.942;2022-08-19T04:47:31;19.60;99.90
24412;DHT22;12544;46.760;15.942;2022-08-19T04:49:58;19.70;99.90
24412;DHT22;12544;46.760;15.942;2022-08-19T04:52:23;19.80;99.90
24412;DHT22;12544;46.760;15.942;2022-08-19T04:54:49;19.90;99.90
24412;DHT22;12544;46.760;15.942;2022-08-19T04:57:14;20.00;99.90
24412;DHT22;12544;46.760;15.942;2022-08-19T04:59:43;20.10;99.90
24412;DHT22;12544;46.760;15.942;2022-08-19T05:02:09;20.20;99.90
24412;DHT22;12544;46.760;15.942;2022-08-19T05:04:35;20.30;99.90
24412;DHT22;12544;46.760;15.942;2022-08-19T05:07:03;20.50;99.90
24412;DHT22;12544;46.760;15.942;2022-08-19T05:09:29;20.50;99.90
24412;DHT22;12544;46.760;15.942;2022-08-19T05:11:55;20.60;99.90
24412;DHT22;12544;46.760;15.942;2022-08-19T05:14:20;20.70;99.90
24412;DHT22;12544;46.760;15.942;2022-08-19T05:16:47;20.70;99.90
24412;DHT22;12544;46.760;15.942;2022-08-19T05:19:12;20.80;99.90
24412;DHT22;12544;46.760;15.942;2022-08-19T05:21:56;20.90;99.90
24412;DHT22;12544;46.760;15.942;2022-08-19T05:24:40;20.90;99.90
24412;DHT22;12544;46.760;15.942;2022-08-19T05:27:06;20.90;99.90
24412;DHT22;12544;46.760;15.942;2022-08-19T05:29:32;20.80;99.90
24412;DHT22;12544;46.760;15.942;2022-08-19T05:31:59;20.90;99.90
24412;DHT22;12544;46.760;15.942;2022-08-19T05:34:26;20.90;99.90
24412;DHT22;12544;46.760;15.942;2022-08-19T05:36:53;21.00;99.90
24412;DHT22;12544;46.760;15.942;2022-08-19T05:39:23;21.00;99.90
24412;DHT22;12544;46.760;15.942;2022-08-19T05:41:50;21.10;99.90
24412;DHT22;12544;46.760;15.942;2022-08-19T05:44:16;21.10;99.90
24412;DHT22;12544;46.760;15.942;2022-08-19T05:46:45;21.20;99.90
24412;DHT22;12544;46.760;15.942;2022-08-19T05:49:15;21.20;99.90
24412;DHT22;12544;46.760;15.942;2022-08-19T05:51:41;21.30;99.90
24412;DHT22;12544;46.760;15.942;2022-08-19T05:54:08;21.30;99.90
24412;DHT22;12544;46.760;15.942;2022-08-19T05:56:34;21.40;99.90
24412;DHT22;12544;46.760;15.942;2022-08-19T05:59:04;21.40;99.90
24412;DHT22;12544;46.760;15.942;2022-08-19T06:01:37;21.30;99.90
24412;DHT22;12544;46.760;15.942;2022-08-19T06:04:03;21.20;99.90
24412;DHT22;12544;46.760;15.942;2022-08-19T06:06:29;21.10;99.90
24412;DHT22;12544;46.760;15.942;2022-08-19T06:08:54;21.10;99.90
24412;DHT22;12544;46.760;15.942;2022-08-19T06:11:22;21.20;99.90
24412;DHT22;12544;46.760;15.942;2022-08-19T06:13:50;21.40;99.90
24412;DHT22;12544;46.760;15.942;2022-08-19T06:16:18;21.50;99.90
24412;DHT22;12544;46.760;15.942;2022-08-19T06:18:56;21.50;99.90
24412;DHT22;12544;46.760;15.942;2022-08-19T06:21:22;21.60;99.90
24412;DHT22;12544;46.760;15.942;2022-08-19T06:23:51;21.70;99.90
24412;DHT22;12544;46.760;15.942;2022-08-19T06:26:17;21.60;99.90
24412;DHT22;12544;46.760;15.942;2022-08-19T06:28:44;21.70;99.90
24412;DHT22;12544;46.760;15.942;2022-08-19T06:31:13;21.70;99.90
24412;DHT22;12544;46.760;15.942;2022-08-19T06:33:40;21.80;99.90
24412;DHT22;12544;46.760;15.942;2022-08-19T06:36:06;21.80;99.90
24412;DHT22;12544;46.760;15.942;2022-08-19T06:38:32;21.90;99.90
24412;DHT22;12544;46.760;15.942;2022-08-19T06:41:04;21.90;99.90
24412;DHT22;12544;46.760;15.942;2022-08-19T06:43:30;22.00;99.90
24412;DHT22;12544;46.760;15.942;2022-08-19T06:45:56;22.10;99.90
24412;DHT22;12544;46.760;15.942;2022-08-19T06:48:22;22.20;99.90
24412;DHT22;12544;46.760;15.942;2022-08-19T06:50:48;22.20;99.90
24412;DHT22;12544;46.760;15.942;2022-08-19T06:53:16;22.30;99.90
24412;DHT22;12544;46.760;15.942;2022-08-19T06:55:44;22.30;99.90
24412;DHT22;12544;46.760;15.942;2022-08-19T06:58:10;22.40;99.90
24412;DHT22;12544;46.760;15.942;2022-08-19T07:00:36;22.40;99.90
24412;DHT22;12544;46.760;15.942;2022-08-19T07:03:01;22.50;99.90
24412;DHT22;12544;46.760;15.942;2022-08-19T07:05:27;22.60;99.90
24412;DHT22;12544;46.760;15.942;2022-08-19T07:07:53;22.70;99.90
24412;DHT22;12544;46.760;15.942;2022-08-19T07:10:18;22.80;99.90
24412;DHT22;12544;46.760;15.942;2022-08-19T07:12:45;22.80;99.90
24412;DHT22;12544;46.760;15.942;2022-08-19T07:15:11;22.80;99.90
24412;DHT22;12544;46.760;15.942;2022-08-19T07:17:37;22.80;99.90
24412;DHT22;12544;46.760;15.942;2022-08-19T07:20:05;22.90;99.90
24412;DHT22;12544;46.760;15.942;2022-08-19T07:22:32;22.80;99.90
24412;DHT22;12544;46.760;15.942;2022-08-19T07:24:59;22.80;99.90
24412;DHT22;12544;46.760;15.942;2022-08-19T07:27:24;22.80;99.90
24412;DHT22;12544;46.760;15.942;2022-08-19T07:29:50;22.80;99.90
24412;DHT22;12544;46.760;15.942;2022-08-19T07:32:15;22.80;99.90
24412;DHT22;12544;46.760;15.942;2022-08-19T07:34:41;22.80;99.90
24412;DHT22;12544;46.760;15.942;2022-08-19T07:37:06;22.80;99.90
24412;DHT22;12544;46.760;15.942;2022-08-19T07:39:33;22.90;99.90
24412;DHT22;12544;46.760;15.942;2022-08-19T07:41:59;22.90;99.90
24412;DHT22;12544;46.760;15.942;2022-08-19T07:44:25;23.00;99.90
24412;DHT22;12544;46.760;15.942;2022-08-19T07:46:54;23.10;99.90
24412;DHT22;12544;46.760;15.942;2022-08-19T07:49:21;23.10;99.90
24412;DHT22;12544;46.760;15.942;2022-08-19T07:51:57;23.10;99.90
24412;DHT22;12544;46.760;15.942;2022-08-19T07:54:24;23.10;99.90
24412;DHT22;12544;46.760;15.942;2022-08-19T07:56:50;23.10;99.90
24412;DHT22;12544;46.760;15.942;2022-08-19T07:59:16;23.20;99.90
24412;DHT22;12544;46.760;15.942;2022-08-19T08:01:42;23.20;99.90
24412;DHT22;12544;46.760;15.942;2022-08-19T08:04:09;23.20;99.90
24412;DHT22;12544;46.760;15.942;2022-08-19T08:06:53;23.30;99.90
24412;DHT22;12544;46.760;15.942;2022-08-19T08:09:39;23.30;99.90
24412;DHT22;12544;46.760;15.942;2022-08-19T08:16:58;23.10;99.90
24412;DHT22;12544;46.760;15.942;2022-08-19T08:19:24;23.00;99.90
24412;DHT22;12544;46.760;15.942;2022-08-19T08:21:50;23.10;99.90
24412;DHT22;12544;46.760;15.942;2022-08-19T08:24:16;23.10;99.90
24412;DHT22;12544;46.760;15.942;2022-08-19T08:26:41;23.10;99.90
24412;DHT22;12544;46.760;15.942;2022-08-19T08:29:09;23.10;99.90
24412;DHT22;12544;46.760;15.942;2022-08-19T08:31:35;23.20;99.90
24412;DHT22;12544;46.760;15.942;2022-08-19T08:34:01;23.20;99.90
24412;DHT22;12544;46.760;15.942;2022-08-19T08:36:26;23.20;99.90
24412;DHT22;12544;46.760;15.942;2022-08-19T08:38:52;23.20;99.90
24412;DHT22;12544;46.760;15.942;2022-08-19T08:41:30;23.20;99.90
24412;DHT22;12544;46.760;15.942;2022-08-19T08:43:57;23.30;99.90
24412;DHT22;12544;46.760;15.942;2022-08-19T08:49:17;23.40;99.90
24412;DHT22;12544;46.760;15.942;2022-08-19T08:51:42;23.50;99.90
24412;DHT22;12544;46.760;15.942;2022-08-19T08:54:10;23.60;99.90
24412;DHT22;12544;46.760;15.942;2022-08-19T08:56:43;23.70;99.90
24412;DHT22;12544;46.760;15.942;2022-08-19T08:59:15;23.80;99.90
24412;DHT22;12544;46.760;15.942;2022-08-19T09:01:42;23.90;99.90
24412;DHT22;12544;46.760;15.942;2022-08-19T09:04:07;24.00;99.90
24412;DHT22;12544;46.760;15.942;2022-08-19T09:16:37;23.80;99.90
24412;DHT22;12544;46.760;15.942;2022-08-19T09:19:06;23.90;99.90
24412;DHT22;12544;46.760;15.942;2022-08-19T09:21:32;24.00;99.90
24412;DHT22;12544;46.760;15.942;2022-08-19T09:23:58;23.90;99.90
24412;DHT22;12544;46.760;15.942;2022-08-19T09:26:24;23.90;99.90
24412;DHT22;12544;46.760;15.942;2022-08-19T09:28:50;23.90;99.90
24412;DHT22;12544;46.760;15.942;2022-08-19T09:31:27;23.90;99.90
24412;DHT22;12544;46.760;15.942;2022-08-19T09:33:53;23.70;99.90
24412;DHT22;12544;46.760;15.942;2022-08-19T09:36:22;23.30;99.90
24412;DHT22;12544;46.760;15.942;2022-08-19T09:38:48;23.20;99.90
24412;DHT22;12544;46.760;15.942;2022-08-19T09:41:15;23.30;99.90
24412;DHT22;12544;46.760;15.942;2022-08-19T09:43:42;23.40;99.90
24412;DHT22;12544;46.760;15.942;2022-08-19T09:46:09;23.60;99.90
24412;DHT22;12544;46.760;15.942;2022-08-19T09:48:38;23.70;99.90
24412;DHT22;12544;46.760;15.942;2022-08-19T09:51:04;23.90;99.90
24412;DHT22;12544;46.760;15.942;2022-08-19T09:53:32;23.80;99.90
24412;DHT22;12544;46.760;15.942;2022-08-19T09:55:57;23.70;99.90
24412;DHT22;12544;46.760;15.942;2022-08-19T09:58:23;23.70;99.90
24412;DHT22;12544;46.760;15.942;2022-08-19T10:00:56;23.90;99.90
24412;DHT22;12544;46.760;15.942;2022-08-19T10:03:22;24.00;99.90
24412;DHT22;12544;46.760;15.942;2022-08-19T10:05:47;24.00;99.90
24412;DHT22;12544;46.760;15.942;2022-08-19T10:08:13;24.00;99.90
24412;DHT22;12544;46.760;15.942;2022-08-19T10:10:38;24.00;99.90
24412;DHT22;12544;46.760;15.942;2022-08-19T10:13:04;24.00;99.90
24412;DHT22;12544;46.760;15.942;2022-08-19T10:15:29;23.90;99.90
24412;DHT22;12544;46.760;15.942;2022-08-19T10:17:55;24.00;99.90
24412;DHT22;12544;46.760;15.942;2022-08-19T10:20:20;23.90;99.90
24412;DHT22;12544;46.760;15.942;2022-08-19T10:22:47;23.80;99.90
24412;DHT22;12544;46.760;15.942;2022-08-19T10:25:19;23.70;99.90
24412;DHT22;12544;46.760;15.942;2022-08-19T10:27:44;23.60;99.90
24412;DHT22;12544;46.760;15.942;2022-08-19T10:30:10;23.60;99.90
24412;DHT22;12544;46.760;15.942;2022-08-19T10:32:36;23.30;99.90
24412;DHT22;12544;46.760;15.942;2022-08-19T10:35:02;23.20;99.90
24412;DHT22;12544;46.760;15.942;2022-08-19T10:37:29;23.20;99.90
24412;DHT22;12544;46.760;15.942;2022-08-19T10:39:55;22.90;99.90
24412;DHT22;12544;46.760;15.942;2022-08-19T10:42:21;22.90;99.90
24412;DHT22;12544;46.760;15.942;2022-08-19T10:44:46;22.80;99.90
24412;DHT22;12544;46.760;15.942;2022-08-19T10:47:15;22.70;99.90
24412;DHT22;12544;46.760;15.942;2022-08-19T10:49:41;22.60;99.90
24412;DHT22;12544;46.760;15.942;2022-08-19T10:52:25;22.70;99.90
24412;DHT22;12544;46.760;15.942;2022-08-19T10:55:01;22.80;99.90
24412;DHT22;12544;46.760;15.942;2022-08-19T10:57:45;22.90;99.90
24412;DHT22;12544;46.760;15.942;2022-08-19T11:00:11;22.90;99.90
24412;DHT22;12544;46.760;15.942;2022-08-19T11:02:36;22.80;99.90
24412;DHT22;12544;46.760;15.942;2022-08-19T11:05:02;22.80;99.90
24412;DHT22;12544;46.760;15.942;2022-08-19T11:07:28;22.80;99.90
24412;DHT22;12544;46.760;15.942;2022-08-19T11:09:53;22.70;99.90
24412;DHT22;12544;46.760;15.942;2022-08-19T11:12:19;22.70;99.90
24412;DHT22;12544;46.760;15.942;2022-08-19T11:14:44;22.70;99.90
24412;DHT22;12544;46.760;15.942;2022-08-19T11:17:10;22.70;99.90
24412;DHT22;12544;46.760;15.942;2022-08-19T11:19:39;22.80;99.90
24412;DHT22;12544;46.760;15.942;2022-08-19T11:22:06;22.90;99.90
24412;DHT22;12544;46.760;15.942;2022-08-19T11:24:33;23.00;99.90
24412;DHT22;12544;46.760;15.942;2022-08-19T11:27:01;23.00;99.90
24412;DHT22;12544;46.760;15.942;2022-08-19T11:29:27;23.10;99.90
24412;DHT22;12544;46.760;15.942;2022-08-19T11:31:53;23.20;99.90
24412;DHT22;12544;46.760;15.942;2022-08-19T11:34:21;23.40;99.90
24412;DHT22;12544;46.760;15.942;2022-08-19T11:36:47;23.30;99.90
24412;DHT22;12544;46.760;15.942;2022-08-19T11:39:14;23.40;99.90
24412;DHT22;12544;46.760;15.942;2022-08-19T11:41:39;23.40;99.90
24412;DHT22;12544;46.760;15.942;2022-08-19T11:44:05;23.30;99.90
24412;DHT22;12544;46.760;15.942;2022-08-19T11:46:33;23.20;99.90
24412;DHT22;12544;46.760;15.942;2022-08-19T11:48:59;23.20;99.90
24412;DHT22;12544;46.760;15.942;2022-08-19T11:51:26;23.30;99.90
24412;DHT22;12544;46.760;15.942;2022-08-19T11:53:56;23.30;99.90
24412;DHT22;12544;46.760;15.942;2022-08-19T11:56:22;23.30;99.90
24412;DHT22;12544;46.760;15.942;2022-08-19T11:58:48;23.40;99.90
24412;DHT22;12544;46.760;15.942;2022-08-19T12:01:14;23.60;99.90
24412;DHT22;12544;46.760;15.942;2022-08-19T12:03:45;23.70;99.90
24412;DHT22;12544;46.760;15.942;2022-08-19T12:06:11;24.00;99.90
24412;DHT22;12544;46.760;15.942;2022-08-19T12:08:41;24.20;99.90
24412;DHT22;12544;46.760;15.942;2022-08-19T12:11:06;24.40;99.90
24412;DHT22;12544;46.760;15.942;2022-08-19T12:13:33;24.70;99.90
24412;DHT22;12544;46.760;15.942;2022-08-19T12:15:59;25.20;99.90
24412;DHT22;12544;46.760;15.942;2022-08-19T12:18:25;25.50;99.90
24412;DHT22;12544;46.760;15.942;2022-08-19T12:20:51;25.70;99.90
24412;DHT22;12544;46.760;15.942;2022-08-19T12:23:17;25.80;99.90
24412;DHT22;12544;46.760;15.942;2022-08-19T12:25:43;26.00;99.90
24412;DHT22;12544;46.760;15.942;2022-08-19T12:28:15;26.20;99.90
24412;DHT22;12544;46.760;15.942;2022-08-19T12:30:41;26.20;99.90
24412;DHT22;12544;46.760;15.942;2022-08-19T12:33:07;26.30;99.90
24412;DHT22;12544;46.760;15.942;2022-08-19T12:35:33;26.60;99.90
24412;DHT22;12544;46.760;15.942;2022-08-19T12:37:58;26.90;99.00
24412;DHT22;12544;46.760;15.942;2022-08-19T12:40:26;27.10;99.00
24412;DHT22;12544;46.760;15.942;2022-08-19T12:42:52;27.10;98.20
24412;DHT22;12544;46.760;15.942;2022-08-19T12:45:18;27.30;97.80
24412;DHT22;12544;46.760;15.942;2022-08-19T12:47:44;27.40;96.90
24412;DHT22;12544;46.760;15.942;2022-08-19T12:50:11;27.50;97.50
24412;DHT22;12544;46.760;15.942;2022-08-19T12:52:37;27.70;96.30
24412;DHT22;12544;46.760;15.942;2022-08-19T12:55:03;27.80;96.10
24412;DHT22;12544;46.760;15.942;2022-08-19T12:57:30;28.00;96.00
24412;DHT22;12544;46.760;15.942;2022-08-19T13:00:04;28.10;96.30
24412;DHT22;12544;46.760;15.942;2022-08-19T13:02:31;28.30;95.80
24412;DHT22;12544;46.760;15.942;2022-08-19T13:04:57;28.50;95.30
24412;DHT22;12544;46.760;15.942;2022-08-19T13:07:23;28.50;95.00
24412;DHT22;12544;46.760;15.942;2022-08-19T13:09:51;28.70;95.00
24412;DHT22;12544;46.760;15.942;2022-08-19T13:12:16;28.80;94.70
24412;DHT22;12544;46.760;15.942;2022-08-19T13:14:42;28.80;93.30
24412;DHT22;12544;46.760;15.942;2022-08-19T13:17:08;28.90;93.70
24412;DHT22;12544;46.760;15.942;2022-08-19T13:19:35;29.00;94.10
24412;DHT22;12544;46.760;15.942;2022-08-19T13:22:01;29.10;92.30
24412;DHT22;12544;46.760;15.942;2022-08-19T13:24:27;29.10;93.10
24412;DHT22;12544;46.760;15.942;2022-08-19T13:26:52;29.10;92.20
24412;DHT22;12544;46.760;15.942;2022-08-19T13:29:18;29.10;92.60
24412;DHT22;12544;46.760;15.942;2022-08-19T13:32:02;28.90;92.40
24412;DHT22;12544;46.760;15.942;2022-08-19T13:34:46;28.80;92.50
24412;DHT22;12544;46.760;15.942;2022-08-19T13:37:13;28.90;92.30
24412;DHT22;12544;46.760;15.942;2022-08-19T13:39:38;29.10;92.70
24412;DHT22;12544;46.760;15.942;2022-08-19T13:42:04;29.40;92.30
24412;DHT22;12544;46.760;15.942;2022-08-19T13:44:30;29.50;91.30
24412;DHT22;12544;46.760;15.942;2022-08-19T13:47:05;29.70;91.80
24412;DHT22;12544;46.760;15.942;2022-08-19T13:49:33;29.90;90.30
24412;DHT22;12544;46.760;15.942;2022-08-19T13:52:00;30.00;89.20
24412;DHT22;12544;46.760;15.942;2022-08-19T13:54:25;29.90;90.00
24412;DHT22;12544;46.760;15.942;2022-08-19T13:56:52;30.00;88.40
24412;DHT22;12544;46.760;15.942;2022-08-19T13:59:17;30.00;86.90
24412;DHT22;12544;46.760;15.942;2022-08-19T14:01:43;30.10;86.00
24412;DHT22;12544;46.760;15.942;2022-08-19T14:04:08;30.20;87.70
24412;DHT22;12544;46.760;15.942;2022-08-19T14:06:34;30.30;87.40
24412;DHT22;12544;46.760;15.942;2022-08-19T14:09:00;30.30;88.70
24412;DHT22;12544;46.760;15.942;2022-08-19T14:11:27;30.40;87.30
24412;DHT22;12544;46.760;15.942;2022-08-19T14:13:53;30.30;88.60
24412;DHT22;12544;46.760;15.942;2022-08-19T14:16:19;30.20;87.90
24412;DHT22;12544;46.760;15.942;2022-08-19T14:18:44;30.30;85.80
24412;DHT22;12544;46.760;15.942;2022-08-19T14:21:17;30.30;85.40
24412;DHT22;12544;46.760;15.942;2022-08-19T14:23:45;30.40;86.80
24412;DHT22;12544;46.760;15.942;2022-08-19T14:26:12;30.50;85.70
24412;DHT22;12544;46.760;15.942;2022-08-19T14:28:45;30.60;84.00
24412;DHT22;12544;46.760;15.942;2022-08-19T14:31:12;30.80;84.50
24412;DHT22;12544;46.760;15.942;2022-08-19T14:33:38;30.70;85.10
24412;DHT22;12544;46.760;15.942;2022-08-19T14:36:04;30.70;85.60
24412;DHT22;12544;46.760;15.942;2022-08-19T14:38:30;30.70;85.50
24412;DHT22;12544;46.760;15.942;2022-08-19T14:43:52;30.40;82.80
24412;DHT22;12544;46.760;15.942;2022-08-19T14:46:19;30.40;84.30
24412;DHT22;12544;46.760;15.942;2022-08-19T14:48:46;30.20;83.70
24412;DHT22;12544;46.760;15.942;2022-08-19T14:51:11;29.90;83.90
24412;DHT22;12544;46.760;15.942;2022-08-19T14:53:37;29.80;84.60
24412;DHT22;12544;46.760;15.942;2022-08-19T14:56:09;29.90;85.40
24412;DHT22;12544;46.760;15.942;2022-08-19T14:58:35;29.90;85.70
24412;DHT22;12544;46.760;15.942;2022-08-19T15:01:00;29.90;86.40
24412;DHT22;12544;46.760;15.942;2022-08-19T15:03:27;29.70;87.20
24412;DHT22;12544;46.760;15.942;2022-08-19T15:05:52;29.50;87.90
24412;DHT22;12544;46.760;15.942;2022-08-19T15:08:20;29.30;88.50
24412;DHT22;12544;46.760;15.942;2022-08-19T15:10:47;29.30;88.70
24412;DHT22;12544;46.760;15.942;2022-08-19T15:13:13;29.30;89.20
24412;DHT22;12544;46.760;15.942;2022-08-19T15:15:39;29.10;90.40
24412;DHT22;12544;46.760;15.942;2022-08-19T15:18:04;29.10;90.20
24412;DHT22;12544;46.760;15.942;2022-08-19T15:20:30;29.10;90.60
24412;DHT22;12544;46.760;15.942;2022-08-19T15:22:56;29.20;90.30
24412;DHT22;12544;46.760;15.942;2022-08-19T15:25:22;29.40;90.30
24412;DHT22;12544;46.760;15.942;2022-08-19T15:27:47;29.50;88.60
24412;DHT22;12544;46.760;15.942;2022-08-19T15:30:18;29.70;88.00
24412;DHT22;12544;46.760;15.942;2022-08-19T15:32:44;29.70;88.40
24412;DHT22;12544;46.760;15.942;2022-08-19T15:35:09;29.80;88.00
24412;DHT22;12544;46.760;15.942;2022-08-19T15:37:35;29.80;87.30
24412;DHT22;12544;46.760;15.942;2022-08-19T15:40:00;29.80;86.90
24412;DHT22;12544;46.760;15.942;2022-08-19T15:44:54;29.90;87.40
24412;DHT22;12544;46.760;15.942;2022-08-19T15:47:20;29.90;87.40
24412;DHT22;12544;46.760;15.942;2022-08-19T15:49:46;30.00;87.70
24412;DHT22;12544;46.760;15.942;2022-08-19T15:52:12;30.00;87.20
24412;DHT22;12544;46.760;15.942;2022-08-19T15:54:37;29.90;86.70
24412;DHT22;12544;46.760;15.942;2022-08-19T15:57:03;29.90;86.50